Time;durP1;ratioP1;P1;durP2;ratioP2;P2;SDS_P1;SDS_P2;PMS_P1;PMS_P2;Temp;Humidity;BMP_temperature;BMP_pressure;BME280_temperature;BME280_humidity;BME280_pressure;Samples;Min_cycle;Max_cycle;Signal;HPM_P1;HPM_P2
2022/10/24 00:00:46;;;;;;;;;;;15.70;86.40;;;;;;4995837;28;19933;-81
2022/10/24 00:03:12;;;;;;;;;;;15.70;86.60;;;;;;4993361;28;19921;-80
2022/10/24 00:05:45;;;;;;;;;;;15.80;86.10;;;;;;4990527;28;20001;-82
2022/10/24 00:08:10;;;;;;;;;;;15.80;85.80;;;;;;4992733;28;19918;-81
2022/10/24 00:10:39;;;;;;;;;;;15.80;86.00;;;;;;4993222;28;20004;-81
2022/10/24 00:13:05;;;;;;;;;;;15.80;86.20;;;;;;4992803;28;20064;-80
2022/10/24 00:15:31;;;;;;;;;;;15.80;86.10;;;;;;4992413;28;20005;-81
2022/10/24 00:17:56;;;;;;;;;;;15.70;86.20;;;;;;4990631;28;21089;-81
2022/10/24 00:20:22;;;;;;;;;;;15.80;86.00;;;;;;4990481;28;19920;-80
2022/10/24 00:22:47;;;;;;;;;;;15.80;85.60;;;;;;4991850;28;20431;-80
2022/10/24 00:25:12;;;;;;;;;;;15.90;85.30;;;;;;4991174;28;20325;-81
2022/10/24 00:27:38;;;;;;;;;;;15.80;85.40;;;;;;4991727;28;19997;-80
2022/10/24 00:30:04;;;;;;;;;;;15.80;85.50;;;;;;4991870;28;19969;-81
2022/10/24 00:32:29;;;;;;;;;;;15.80;85.90;;;;;;4991682;28;19957;-81
2022/10/24 00:34:55;;;;;;;;;;;15.90;85.40;;;;;;4989036;28;20305;-81
2022/10/24 00:37:20;;;;;;;;;;;15.90;84.90;;;;;;4991840;28;19921;-81
2022/10/24 00:39:46;;;;;;;;;;;15.90;85.30;;;;;;4990464;28;20428;-81
2022/10/24 00:42:11;;;;;;;;;;;15.90;85.20;;;;;;4989858;28;20009;-81
2022/10/24 00:44:37;;;;;;;;;;;15.90;85.10;;;;;;4991794;28;19965;-81
2022/10/24 00:47:03;;;;;;;;;;;15.90;85.00;;;;;;4990129;28;19918;-80
2022/10/24 00:49:30;;;;;;;;;;;16.00;84.40;;;;;;4979552;28;19961;-80
2022/10/24 00:51:59;;;;;;;;;;;15.90;84.50;;;;;;5008515;28;19925;-80
2022/10/24 00:54:25;;;;;;;;;;;15.90;85.00;;;;;;5001768;28;22217;-81
2022/10/24 00:57:06;;;;;;;;;;;15.80;84.50;;;;;;4995089;28;19938;-81
2022/10/24 00:59:33;;;;;;;;;;;15.80;85.00;;;;;;4991451;28;20442;-80
2022/10/24 01:01:59;;;;;;;;;;;15.80;84.80;;;;;;4989846;28;20005;-81
2022/10/24 01:04:24;;;;;;;;;;;15.90;84.80;;;;;;4992916;28;19957;-80
2022/10/24 01:07:09;;;;;;;;;;;16.00;84.20;;;;;;4990109;28;19968;-80
2022/10/24 01:10:01;;;;;;;;;;;15.80;84.10;;;;;;4995305;28;20393;-80
2022/10/24 01:12:36;;;;;;;;;;;15.80;84.20;;;;;;4989209;28;20052;-80
2022/10/24 01:15:20;;;;;;;;;;;15.90;84.10;;;;;;4988850;28;19925;-80
2022/10/24 01:18:04;;;;;;;;;;;15.80;84.50;;;;;;4989983;28;19921;-80
2022/10/24 01:20:52;;;;;;;;;;;15.80;84.30;;;;;;4991091;28;19921;-79
2022/10/24 01:23:47;;;;;;;;;;;15.90;83.80;;;;;;4995513;28;19918;-79
2022/10/24 01:26:31;;;;;;;;;;;16.00;83.30;;;;;;4936111;28;20379;-80
2022/10/24 01:29:14;;;;;;;;;;;15.90;83.00;;;;;;4990010;28;20472;-79
2022/10/24 01:31:46;;;;;;;;;;;16.00;83.10;;;;;;4993969;28;20009;-80
2022/10/24 01:34:16;;;;;;;;;;;16.10;82.60;;;;;;4997052;28;19914;-81
2022/10/24 01:36:44;;;;;;;;;;;16.00;82.40;;;;;;4996217;28;19914;-81
2022/10/24 01:39:12;;;;;;;;;;;16.00;82.00;;;;;;4996589;28;19914;-80
2022/10/24 01:41:39;;;;;;;;;;;16.00;82.00;;;;;;5003167;28;19914;-80
2022/10/24 01:44:07;;;;;;;;;;;16.10;81.80;;;;;;4995793;28;19920;-80
2022/10/24 01:46:44;;;;;;;;;;;16.10;82.10;;;;;;4991693;28;19949;-81
2022/10/24 01:49:15;;;;;;;;;;;16.10;81.90;;;;;;5012995;28;20259;-82
2022/10/24 01:51:42;;;;;;;;;;;16.20;81.10;;;;;;5009623;28;19914;-81
2022/10/24 01:54:08;;;;;;;;;;;16.30;80.90;;;;;;5023110;22;19932;-88
2022/10/24 01:56:33;;;;;;;;;;;16.40;80.10;;;;;;5013696;28;19922;-90
2022/10/24 01:59:27;;;;;;;;;;;16.50;79.80;;;;;;5010015;28;19913;-88
2022/10/24 02:02:05;;;;;;;;;;;16.30;80.40;;;;;;5002011;28;20358;-89
2022/10/24 02:04:31;;;;;;;;;;;16.50;80.10;;;;;;5008155;28;19913;-89
2022/10/24 02:06:58;;;;;;;;;;;16.50;80.10;;;;;;5009769;28;19920;-91
2022/10/24 02:09:24;;;;;;;;;;;16.40;80.20;;;;;;5010237;28;20011;-88
2022/10/24 02:11:51;;;;;;;;;;;16.50;79.80;;;;;;5021778;28;20391;-88
2022/10/24 02:14:18;;;;;;;;;;;16.60;79.30;;;;;;5011642;28;19917;-88
2022/10/24 02:16:43;;;;;;;;;;;16.50;79.60;;;;;;5013369;28;19917;-88
2022/10/24 02:19:09;;;;;;;;;;;16.60;79.20;;;;;;5007409;28;19914;-88
2022/10/24 02:21:53;;;;;;;;;;;16.50;79.30;;;;;;5013635;28;19922;-88
2022/10/24 02:24:22;;;;;;;;;;;16.40;79.60;;;;;;5011706;28;19988;-88
2022/10/24 02:26:51;;;;;;;;;;;16.40;79.80;;;;;;5009675;28;19996;-88
2022/10/24 02:29:18;;;;;;;;;;;16.50;80.00;;;;;;5010317;28;19917;-88
2022/10/24 02:31:47;;;;;;;;;;;16.50;79.30;;;;;;5010642;28;19913;-88
2022/10/24 02:34:13;;;;;;;;;;;16.60;78.30;;;;;;5011275;28;19917;-90
2022/10/24 02:36:40;;;;;;;;;;;16.60;78.50;;;;;;5012103;28;19928;-90
2022/10/24 02:39:07;;;;;;;;;;;16.50;78.40;;;;;;5006407;28;19969;-89
2022/10/24 02:41:34;;;;;;;;;;;16.60;78.20;;;;;;5019103;28;20286;-90
2022/10/24 02:44:01;;;;;;;;;;;16.60;78.10;;;;;;5010843;28;19920;-89
2022/10/24 02:46:26;;;;;;;;;;;16.50;78.50;;;;;;5013148;28;20330;-89
2022/10/24 02:48:54;;;;;;;;;;;16.60;78.10;;;;;;5015602;28;20177;-89
2022/10/24 02:51:21;;;;;;;;;;;16.40;78.30;;;;;;5012979;28;20315;-89
2022/10/24 02:53:46;;;;;;;;;;;16.50;78.50;;;;;;5012499;28;19963;-89
2022/10/24 02:56:12;;;;;;;;;;;16.50;78.50;;;;;;5007504;28;19921;-89
2022/10/24 02:58:38;;;;;;;;;;;16.50;78.00;;;;;;5014276;28;20004;-89
2022/10/24 03:01:03;;;;;;;;;;;16.50;77.70;;;;;;5006063;28;20008;-90
2022/10/24 03:03:28;;;;;;;;;;;16.50;77.80;;;;;;5012655;28;19917;-90
2022/10/24 03:05:54;;;;;;;;;;;16.50;77.70;;;;;;5006112;28;19920;-90
2022/10/24 03:08:19;;;;;;;;;;;16.40;78.20;;;;;;5009463;28;19924;-89
2022/10/24 03:10:45;;;;;;;;;;;16.40;77.20;;;;;;5007560;28;19949;-90
2022/10/24 03:13:10;;;;;;;;;;;16.50;77.00;;;;;;5009108;28;19917;-89
2022/10/24 03:15:36;;;;;;;;;;;16.40;76.80;;;;;;5009616;28;19906;-91
2022/10/24 03:18:02;;;;;;;;;;;16.50;76.70;;;;;;5008715;28;19913;-89
2022/10/24 03:20:27;;;;;;;;;;;16.40;77.00;;;;;;5005654;28;19918;-91
2022/10/24 03:22:52;;;;;;;;;;;16.40;76.80;;;;;;5021877;28;19920;-93
2022/10/24 03:25:18;;;;;;;;;;;16.40;77.20;;;;;;5020069;28;19924;-89
2022/10/24 03:27:43;;;;;;;;;;;16.30;77.10;;;;;;5009121;28;19942;-90
2022/10/24 03:30:09;;;;;;;;;;;16.50;76.60;;;;;;5000509;28;19917;-89
2022/10/24 03:32:35;;;;;;;;;;;16.40;76.60;;;;;;5009229;28;19913;-89
2022/10/24 03:35:01;;;;;;;;;;;16.50;76.60;;;;;;5012415;28;19897;-94
2022/10/24 03:37:26;;;;;;;;;;;16.50;76.30;;;;;;5025607;28;19918;-89
2022/10/24 03:39:52;;;;;;;;;;;16.40;76.60;;;;;;5015034;28;19920;-90
2022/10/24 03:42:17;;;;;;;;;;;16.40;76.60;;;;;;5009333;28;19925;-90
2022/10/24 03:44:42;;;;;;;;;;;16.50;76.30;;;;;;5019213;28;19957;-89
2022/10/24 03:47:08;;;;;;;;;;;16.50;76.50;;;;;;5010427;28;19949;-90
2022/10/24 03:49:34;;;;;;;;;;;16.50;76.60;;;;;;5009652;28;19948;-89
2022/10/24 03:51:59;;;;;;;;;;;16.40;76.80;;;;;;5009181;28;19913;-89
2022/10/24 03:54:25;;;;;;;;;;;16.60;76.10;;;;;;5011236;28;20372;-89
2022/10/24 03:56:50;;;;;;;;;;;16.60;76.20;;;;;;5010156;28;20443;-91
2022/10/24 03:59:16;;;;;;;;;;;16.60;76.20;;;;;;5009881;28;19919;-89
2022/10/24 04:01:44;;;;;;;;;;;16.60;76.30;;;;;;5010401;28;19921;-90
2022/10/24 04:04:09;;;;;;;;;;;16.50;76.80;;;;;;5007753;28;19921;-89
2022/10/24 04:06:35;;;;;;;;;;;16.50;76.50;;;;;;5018171;28;19995;-90
2022/10/24 04:09:00;;;;;;;;;;;16.50;76.60;;;;;;5015753;28;19964;-90
2022/10/24 04:11:26;;;;;;;;;;;16.40;76.90;;;;;;5011578;28;20008;-90
2022/10/24 04:13:52;;;;;;;;;;;16.30;77.00;;;;;;5009635;28;19996;-89
2022/10/24 04:16:18;;;;;;;;;;;16.50;76.60;;;;;;5010664;28;19918;-90
2022/10/24 04:18:44;;;;;;;;;;;16.50;76.60;;;;;;5010158;28;20407;-90
2022/10/24 04:21:09;;;;;;;;;;;16.50;76.50;;;;;;5008469;28;19917;-91
2022/10/24 04:23:39;;;;;;;;;;;16.40;76.70;;;;;;5018357;28;19928;-89
2022/10/24 04:26:08;;;;;;;;;;;16.40;76.80;;;;;;5014292;28;20000;-89
2022/10/24 04:28:34;;;;;;;;;;;16.30;77.00;;;;;;5027184;28;20002;-91
2022/10/24 04:30:59;;;;;;;;;;;16.20;77.30;;;;;;5012524;28;19913;-92
2022/10/24 04:33:25;;;;;;;;;;;16.30;77.20;;;;;;5010381;28;19913;-90
2022/10/24 04:35:53;;;;;;;;;;;16.30;77.10;;;;;;5018559;28;19921;-91
2022/10/24 04:38:19;;;;;;;;;;;16.20;77.60;;;;;;5011117;28;19937;-90
2022/10/24 04:40:47;;;;;;;;;;;16.30;77.10;;;;;;5011663;28;19914;-91
2022/10/24 04:43:12;;;;;;;;;;;16.20;77.30;;;;;;5004527;28;20700;-88
2022/10/24 04:45:38;;;;;;;;;;;16.20;77.20;;;;;;5006492;28;19913;-88
2022/10/24 04:48:03;;;;;;;;;;;16.30;77.00;;;;;;5005359;28;20233;-88
2022/10/24 04:50:29;;;;;;;;;;;16.30;76.50;;;;;;5005993;28;19939;-88
2022/10/24 04:52:54;;;;;;;;;;;16.40;76.20;;;;;;5004784;28;19917;-90
2022/10/24 04:55:20;;;;;;;;;;;16.20;77.10;;;;;;5008954;28;20380;-88
2022/10/24 04:57:45;;;;;;;;;;;16.20;77.20;;;;;;5011908;28;20268;-91
2022/10/24 05:00:11;;;;;;;;;;;16.20;76.90;;;;;;5008470;28;20051;-89
2022/10/24 05:02:36;;;;;;;;;;;16.30;76.60;;;;;;5008310;28;19917;-88
2022/10/24 05:05:02;;;;;;;;;;;16.30;76.60;;;;;;5006961;28;19921;-86
2022/10/24 05:07:27;;;;;;;;;;;16.30;76.30;;;;;;5011930;28;19975;-86
2022/10/24 05:09:53;;;;;;;;;;;16.30;76.20;;;;;;5011925;28;20016;-88
2022/10/24 05:12:18;;;;;;;;;;;16.30;75.90;;;;;;5012002;28;19922;-86
2022/10/24 05:14:46;;;;;;;;;;;16.20;76.10;;;;;;5027960;28;19913;-88
2022/10/24 05:17:12;;;;;;;;;;;16.30;75.50;;;;;;5021336;28;20237;-87
2022/10/24 05:19:37;;;;;;;;;;;16.30;75.80;;;;;;5020062;28;19918;-87
2022/10/24 05:22:03;;;;;;;;;;;16.30;75.70;;;;;;5016142;28;20004;-87
2022/10/24 05:24:29;;;;;;;;;;;16.30;75.70;;;;;;5013213;28;19984;-86
2022/10/24 05:26:54;;;;;;;;;;;16.30;75.30;;;;;;5010714;28;19914;-88
2022/10/24 05:29:20;;;;;;;;;;;16.30;75.00;;;;;;5010320;28;19921;-86
2022/10/24 05:31:45;;;;;;;;;;;16.30;75.20;;;;;;5006179;28;19979;-88
2022/10/24 05:34:11;;;;;;;;;;;16.20;75.50;;;;;;5008269;28;19945;-87
2022/10/24 05:36:36;;;;;;;;;;;16.30;74.90;;;;;;5019244;28;19921;-87
2022/10/24 05:39:04;;;;;;;;;;;16.30;74.90;;;;;;5009105;28;20032;-89
2022/10/24 05:41:31;;;;;;;;;;;16.40;74.60;;;;;;5011616;28;20774;-84
2022/10/24 05:43:57;;;;;;;;;;;16.30;74.80;;;;;;5016658;28;20044;-86
2022/10/24 05:46:22;;;;;;;;;;;16.20;74.90;;;;;;5009645;28;20385;-85
2022/10/24 05:48:47;;;;;;;;;;;16.30;74.90;;;;;;5010351;28;20008;-85
2022/10/24 05:51:13;;;;;;;;;;;16.20;75.00;;;;;;5013033;28;20379;-86
2022/10/24 05:53:38;;;;;;;;;;;16.20;74.90;;;;;;5011774;28;19917;-87
2022/10/24 05:56:05;;;;;;;;;;;16.20;74.80;;;;;;5013502;28;20508;-87
2022/10/24 05:58:30;;;;;;;;;;;16.20;74.90;;;;;;5011898;28;19921;-86
2022/10/24 06:00:56;;;;;;;;;;;16.10;75.00;;;;;;5007141;28;19914;-87
2022/10/24 06:03:22;;;;;;;;;;;16.20;74.50;;;;;;5009531;28;19918;-86
2022/10/24 06:05:48;;;;;;;;;;;16.20;74.90;;;;;;5010680;28;20382;-86
2022/10/24 06:08:13;;;;;;;;;;;16.20;74.60;;;;;;5010397;28;19921;-87
2022/10/24 06:10:38;;;;;;;;;;;16.10;75.10;;;;;;5012140;28;19920;-87
2022/10/24 06:13:04;;;;;;;;;;;16.20;74.50;;;;;;5015118;28;19948;-86
2022/10/24 06:15:29;;;;;;;;;;;16.20;74.10;;;;;;5012443;28;20507;-86
2022/10/24 06:17:55;;;;;;;;;;;16.30;74.10;;;;;;5016131;28;19916;-86
2022/10/24 06:20:20;;;;;;;;;;;16.30;74.00;;;;;;5012805;28;20286;-87
2022/10/24 06:22:47;;;;;;;;;;;16.30;73.70;;;;;;5013647;28;19913;-86
2022/10/24 06:25:12;;;;;;;;;;;16.30;73.40;;;;;;5013249;28;20005;-87
2022/10/24 06:27:38;;;;;;;;;;;16.20;73.40;;;;;;5011076;28;20000;-87
2022/10/24 06:30:05;;;;;;;;;;;16.30;73.40;;;;;;5011295;28;19914;-87
2022/10/24 06:32:30;;;;;;;;;;;16.20;73.80;;;;;;5000783;28;19914;-88
2022/10/24 06:34:55;;;;;;;;;;;16.30;73.00;;;;;;5006770;28;19913;-87
2022/10/24 06:37:21;;;;;;;;;;;16.50;72.30;;;;;;5009807;28;19914;-87
2022/10/24 06:39:46;;;;;;;;;;;16.40;72.80;;;;;;5010399;28;20124;-86
2022/10/24 06:42:12;;;;;;;;;;;16.30;72.80;;;;;;5010457;28;20632;-86
2022/10/24 06:44:37;;;;;;;;;;;16.40;72.30;;;;;;4998686;28;19918;-84
2022/10/24 06:47:03;;;;;;;;;;;16.50;72.60;;;;;;5010365;28;19913;-85
2022/10/24 06:49:28;;;;;;;;;;;16.50;72.00;;;;;;5010714;28;19921;-86
2022/10/24 06:51:54;;;;;;;;;;;16.40;73.00;;;;;;5019396;28;19994;-85
2022/10/24 06:54:19;;;;;;;;;;;16.50;72.90;;;;;;5022669;28;19979;-85
2022/10/24 06:56:45;;;;;;;;;;;16.40;72.70;;;;;;5019974;28;19909;-85
2022/10/24 06:59:12;;;;;;;;;;;16.50;72.30;;;;;;5011501;28;20407;-86
2022/10/24 07:01:38;;;;;;;;;;;16.50;72.10;;;;;;5016749;28;19960;-85
2022/10/24 07:04:04;;;;;;;;;;;16.50;72.20;;;;;;5010615;28;19961;-85
2022/10/24 07:06:29;;;;;;;;;;;16.50;72.40;;;;;;5029620;28;19909;-86
2022/10/24 07:08:56;;;;;;;;;;;16.50;72.50;;;;;;5003919;28;19914;-85
2022/10/24 07:11:22;;;;;;;;;;;16.60;72.30;;;;;;5008096;28;19920;-85
2022/10/24 07:13:47;;;;;;;;;;;16.60;72.30;;;;;;5007560;28;20370;-85
2022/10/24 07:16:13;;;;;;;;;;;16.60;72.70;;;;;;5009988;28;19918;-85
2022/10/24 07:18:38;;;;;;;;;;;16.60;72.10;;;;;;5003590;28;19963;-88
2022/10/24 07:21:05;;;;;;;;;;;16.60;72.50;;;;;;5009805;28;19921;-86
2022/10/24 07:23:31;;;;;;;;;;;16.70;72.30;;;;;;5007724;28;19917;-86
2022/10/24 07:26:01;;;;;;;;;;;16.70;72.80;;;;;;4999346;28;19921;-86
2022/10/24 07:28:26;;;;;;;;;;;16.70;72.60;;;;;;5008515;28;19920;-86
2022/10/24 07:30:52;;;;;;;;;;;16.80;71.80;;;;;;5018453;28;20063;-85
2022/10/24 07:33:17;;;;;;;;;;;17.00;71.60;;;;;;5010372;28;20032;-87
2022/10/24 07:35:42;;;;;;;;;;;16.90;71.90;;;;;;5019864;28;19914;-85
2022/10/24 07:38:08;;;;;;;;;;;16.80;72.00;;;;;;5011849;28;20008;-85
2022/10/24 07:40:34;;;;;;;;;;;16.80;72.50;;;;;;5010797;28;19909;-83
2022/10/24 07:42:59;;;;;;;;;;;16.80;72.40;;;;;;5006509;28;19948;-84
2022/10/24 07:45:24;;;;;;;;;;;16.90;72.20;;;;;;5013722;28;19909;-84
2022/10/24 07:47:50;;;;;;;;;;;16.90;72.10;;;;;;5009215;28;19983;-85
2022/10/24 07:50:16;;;;;;;;;;;17.00;71.60;;;;;;5010610;28;19921;-85
2022/10/24 07:52:41;;;;;;;;;;;17.10;71.40;;;;;;5014012;28;19914;-86
2022/10/24 07:55:07;;;;;;;;;;;17.10;71.40;;;;;;5044648;23;20299;-84
2022/10/24 07:57:32;;;;;;;;;;;17.10;71.10;;;;;;5003409;28;19956;-84
2022/10/24 07:59:58;;;;;;;;;;;17.20;70.60;;;;;;5010736;28;20017;-85
2022/10/24 08:02:23;;;;;;;;;;;17.20;70.70;;;;;;5021694;28;19921;-83
2022/10/24 08:04:49;;;;;;;;;;;17.30;70.80;;;;;;5015274;28;19988;-82
2022/10/24 08:07:14;;;;;;;;;;;17.30;70.30;;;;;;5027488;28;19959;-83
2022/10/24 08:09:44;;;;;;;;;;;17.30;70.50;;;;;;5027184;28;19969;-83
2022/10/24 08:12:10;;;;;;;;;;;17.40;70.60;;;;;;5012967;28;19909;-84
2022/10/24 08:14:37;;;;;;;;;;;17.30;71.10;;;;;;5012474;28;19920;-82
2022/10/24 08:17:03;;;;;;;;;;;17.30;70.60;;;;;;5011607;28;20406;-84
2022/10/24 08:19:29;;;;;;;;;;;17.30;70.50;;;;;;5011727;28;20000;-83
2022/10/24 08:21:54;;;;;;;;;;;17.40;69.70;;;;;;5012726;28;20406;-84
2022/10/24 08:24:20;;;;;;;;;;;17.50;69.30;;;;;;5022924;28;20264;-83
2022/10/24 08:26:46;;;;;;;;;;;17.50;69.60;;;;;;5010449;28;20056;-84
2022/10/24 08:29:13;;;;;;;;;;;17.60;68.70;;;;;;5005785;28;19910;-84
2022/10/24 08:31:39;;;;;;;;;;;17.70;68.60;;;;;;4997318;28;19913;-83
2022/10/24 08:34:05;;;;;;;;;;;17.70;68.60;;;;;;5022884;28;20000;-83
2022/10/24 08:36:32;;;;;;;;;;;17.80;68.70;;;;;;5009686;28;20008;-84
2022/10/24 08:38:58;;;;;;;;;;;17.80;68.40;;;;;;5027297;28;19952;-85
2022/10/24 08:41:24;;;;;;;;;;;17.80;68.00;;;;;;5030360;28;19932;-83
2022/10/24 08:43:50;;;;;;;;;;;17.90;67.40;;;;;;5026677;28;19926;-86
2022/10/24 08:46:24;;;;;;;;;;;17.90;67.60;;;;;;5010351;28;19960;-85
2022/10/24 08:48:52;;;;;;;;;;;17.80;67.60;;;;;;5009784;28;19913;-84
2022/10/24 08:51:23;;;;;;;;;;;17.80;66.80;;;;;;5008980;28;19920;-84
2022/10/24 08:53:50;;;;;;;;;;;17.80;67.30;;;;;;4995965;28;19925;-82
2022/10/24 08:56:16;;;;;;;;;;;17.80;67.30;;;;;;5002690;28;20269;-85
2022/10/24 08:58:43;;;;;;;;;;;18.00;67.00;;;;;;4993171;28;19914;-84
2022/10/24 09:01:13;;;;;;;;;;;18.00;67.00;;;;;;4996339;28;19918;-85
2022/10/24 09:03:43;;;;;;;;;;;17.90;67.20;;;;;;5013192;28;19964;-85
2022/10/24 09:06:16;;;;;;;;;;;17.80;67.30;;;;;;5012754;28;19909;-84
2022/10/24 09:08:51;;;;;;;;;;;17.90;67.40;;;;;;5031765;28;19968;-84
2022/10/24 09:11:23;;;;;;;;;;;17.80;67.30;;;;;;5014157;28;19964;-85
2022/10/24 09:13:49;;;;;;;;;;;17.70;67.90;;;;;;5028247;28;19945;-85
2022/10/24 09:16:18;;;;;;;;;;;17.70;67.70;;;;;;5009759;28;20024;-83
2022/10/24 09:18:45;;;;;;;;;;;17.70;68.00;;;;;;5007139;28;20014;-83
2022/10/24 09:21:12;;;;;;;;;;;17.60;67.60;;;;;;4991397;28;19910;-84
2022/10/24 09:23:38;;;;;;;;;;;17.60;68.40;;;;;;5010996;28;19971;-83
2022/10/24 09:26:06;;;;;;;;;;;17.60;68.00;;;;;;5015723;28;19909;-84
2022/10/24 09:28:33;;;;;;;;;;;17.50;68.60;;;;;;5010111;28;19956;-83
2022/10/24 09:31:02;;;;;;;;;;;17.60;68.30;;;;;;5021199;28;19913;-83
2022/10/24 09:33:33;;;;;;;;;;;17.50;68.30;;;;;;5048801;28;19950;-82
2022/10/24 09:36:01;;;;;;;;;;;17.60;68.30;;;;;;5024069;28;19909;-83
2022/10/24 09:38:32;;;;;;;;;;;17.60;68.80;;;;;;5014651;28;19910;-85
2022/10/24 09:41:01;;;;;;;;;;;17.50;68.40;;;;;;5017222;28;19918;-84
2022/10/24 09:43:32;;;;;;;;;;;17.50;68.90;;;;;;5016461;28;19949;-85
2022/10/24 09:46:04;;;;;;;;;;;17.70;68.30;;;;;;5017848;28;20004;-83
2022/10/24 09:48:48;;;;;;;;;;;17.80;67.70;;;;;;5035461;28;20364;-83
2022/10/24 09:51:34;;;;;;;;;;;17.70;68.20;;;;;;5035326;28;20355;-82
2022/10/24 09:54:01;;;;;;;;;;;17.80;67.70;;;;;;5041850;28;19921;-85
2022/10/24 09:56:38;;;;;;;;;;;17.70;67.70;;;;;;5033680;28;20437;-85
2022/10/24 09:59:17;;;;;;;;;;;17.70;68.10;;;;;;5022650;28;19910;-85
2022/10/24 10:01:44;;;;;;;;;;;17.70;68.00;;;;;;5003455;28;20004;-85
2022/10/24 10:04:14;;;;;;;;;;;17.70;68.40;;;;;;5019618;28;19914;-85
2022/10/24 10:06:44;;;;;;;;;;;17.60;68.40;;;;;;5017218;28;19920;-84
2022/10/24 10:09:14;;;;;;;;;;;17.80;68.10;;;;;;5029149;28;19917;-84
2022/10/24 10:11:40;;;;;;;;;;;17.70;68.00;;;;;;5017594;28;19914;-84
2022/10/24 10:14:18;;;;;;;;;;;17.90;67.70;;;;;;5015866;28;19933;-84
2022/10/24 10:16:44;;;;;;;;;;;18.00;67.50;;;;;;5026215;28;19917;-85
2022/10/24 10:19:09;;;;;;;;;;;18.10;67.30;;;;;;5014995;28;19996;-85
2022/10/24 10:21:54;;;;;;;;;;;18.10;67.70;;;;;;5017835;28;19957;-84
2022/10/24 10:24:24;;;;;;;;;;;18.10;67.00;;;;;;5015946;28;19913;-83
2022/10/24 10:26:49;;;;;;;;;;;18.10;67.50;;;;;;5014241;28;19914;-84
2022/10/24 10:29:15;;;;;;;;;;;18.10;67.10;;;;;;5012341;28;20280;-84
2022/10/24 10:31:43;;;;;;;;;;;18.10;67.00;;;;;;5012746;28;19956;-84
2022/10/24 10:34:12;;;;;;;;;;;18.10;67.40;;;;;;5013673;28;19909;-82
2022/10/24 10:36:57;;;;;;;;;;;18.10;67.60;;;;;;5013986;28;20485;-83
2022/10/24 10:39:38;;;;;;;;;;;18.00;67.40;;;;;;5011357;28;19910;-84
2022/10/24 10:42:12;;;;;;;;;;;18.10;67.10;;;;;;5024244;28;19961;-84
2022/10/24 10:44:38;;;;;;;;;;;18.10;66.80;;;;;;5014069;28;19910;-83
2022/10/24 10:47:18;;;;;;;;;;;18.10;67.20;;;;;;5012352;28;20004;-83
2022/10/24 10:49:45;;;;;;;;;;;18.10;66.70;;;;;;5012581;28;19921;-84
2022/10/24 10:52:12;;;;;;;;;;;18.10;66.60;;;;;;5028818;28;19909;-84
2022/10/24 10:54:56;;;;;;;;;;;18.20;66.90;;;;;;5019212;28;19921;-82
2022/10/24 10:57:26;;;;;;;;;;;18.30;67.30;;;;;;5029066;28;19921;-82
2022/10/24 11:00:06;;;;;;;;;;;18.40;66.20;;;;;;5032948;28;19894;-83
2022/10/24 11:02:43;;;;;;;;;;;18.30;66.30;;;;;;5003547;28;19979;-84
2022/10/24 11:05:14;;;;;;;;;;;18.30;66.10;;;;;;5006452;28;19920;-83
2022/10/24 11:07:59;;;;;;;;;;;18.30;66.10;;;;;;5010969;28;20402;-89
2022/10/24 11:10:55;;;;;;;;;;;18.40;65.80;;;;;;5013754;28;19913;-90
2022/10/24 11:13:44;;;;;;;;;;;18.40;65.40;;;;;;5010318;28;19913;-89
2022/10/24 11:16:34;;;;;;;;;;;18.40;65.90;;;;;;5029765;28;19902;-90
2022/10/24 11:19:10;;;;;;;;;;;18.30;65.10;;;;;;5011385;28;19960;-90
2022/10/24 11:21:38;;;;;;;;;;;18.40;64.80;;;;;;5013906;28;19949;-87
2022/10/24 11:24:15;;;;;;;;;;;18.40;65.10;;;;;;5011102;28;19917;-85
2022/10/24 11:26:44;;;;;;;;;;;18.40;65.10;;;;;;5002387;28;19937;-87
2022/10/24 11:29:24;;;;;;;;;;;18.30;66.00;;;;;;5008909;28;19922;-84
2022/10/24 11:32:08;;;;;;;;;;;18.30;67.50;;;;;;5012842;28;20305;-88
2022/10/24 11:34:37;;;;;;;;;;;18.10;68.30;;;;;;5010495;28;19924;-84
2022/10/24 11:37:10;;;;;;;;;;;18.10;68.60;;;;;;5005575;28;19924;-85
2022/10/24 11:39:48;;;;;;;;;;;18.10;68.90;;;;;;5003646;28;19922;-84
2022/10/24 11:42:16;;;;;;;;;;;18.10;68.50;;;;;;5003098;28;19921;-84
2022/10/24 11:44:48;;;;;;;;;;;18.10;68.50;;;;;;5004649;28;20356;-84
2022/10/24 11:47:34;;;;;;;;;;;18.10;68.60;;;;;;5003694;28;19917;-84
2022/10/24 11:50:05;;;;;;;;;;;18.10;67.60;;;;;;5002215;28;19924;-82
2022/10/24 11:52:34;;;;;;;;;;;18.20;67.30;;;;;;5006150;28;20020;-84
2022/10/24 11:55:18;;;;;;;;;;;18.20;67.50;;;;;;5024676;28;19918;-85
2022/10/24 11:57:45;;;;;;;;;;;18.20;67.00;;;;;;5004604;28;19918;-85
2022/10/24 12:00:22;;;;;;;;;;;18.30;66.60;;;;;;5006735;28;19913;-85
2022/10/24 12:03:07;;;;;;;;;;;18.30;66.20;;;;;;5006520;28;19922;-86
2022/10/24 12:05:51;;;;;;;;;;;18.30;66.00;;;;;;5024570;28;19921;-85
2022/10/24 12:08:21;;;;;;;;;;;18.30;66.10;;;;;;4998820;28;20394;-85
2022/10/24 12:11:02;;;;;;;;;;;18.10;66.30;;;;;;5004998;28;20064;-85
2022/10/24 12:13:37;;;;;;;;;;;18.20;66.20;;;;;;5006106;28;19921;-86
2022/10/24 12:16:02;;;;;;;;;;;18.20;66.40;;;;;;5007197;28;19976;-86
2022/10/24 12:18:30;;;;;;;;;;;18.10;66.80;;;;;;5001384;28;20371;-85
2022/10/24 12:20:57;;;;;;;;;;;18.10;66.90;;;;;;5002900;28;19975;-86
2022/10/24 12:23:30;;;;;;;;;;;18.10;67.30;;;;;;5007055;28;19988;-86
2022/10/24 12:26:11;;;;;;;;;;;18.20;67.30;;;;;;5007686;28;19913;-84
2022/10/24 12:28:37;;;;;;;;;;;18.20;67.30;;;;;;5006661;28;19913;-86
2022/10/24 12:31:08;;;;;;;;;;;18.20;66.90;;;;;;5008392;28;19967;-85
2022/10/24 12:33:34;;;;;;;;;;;18.10;67.00;;;;;;5008783;28;19953;-84
2022/10/24 12:35:59;;;;;;;;;;;18.20;67.00;;;;;;5028451;28;19924;-84
2022/10/24 12:38:27;;;;;;;;;;;18.10;67.20;;;;;;5025493;28;19905;-86
2022/10/24 12:40:57;;;;;;;;;;;18.10;67.20;;;;;;5007815;28;20547;-87
2022/10/24 12:43:26;;;;;;;;;;;18.20;67.70;;;;;;5001993;28;19992;-86
2022/10/24 12:45:52;;;;;;;;;;;18.10;68.80;;;;;;5006452;28;20009;-85
2022/10/24 12:48:41;;;;;;;;;;;;;;;;;;;;;
2022/10/24 12:51:27;;;;;;;;;;;17.90;70.10;;;;;;4998314;28;19920;-87
2022/10/24 12:54:02;;;;;;;;;;;17.80;71.70;;;;;;5004585;28;19918;-85
2022/10/24 12:56:28;;;;;;;;;;;17.70;72.50;;;;;;4998920;28;20258;-81
2022/10/24 12:58:58;;;;;;;;;;;17.70;72.70;;;;;;4970409;28;19920;-82
2022/10/24 13:01:47;;;;;;;;;;;17.70;72.70;;;;;;4976391;28;20369;-85
2022/10/24 13:04:13;;;;;;;;;;;17.90;72.50;;;;;;4931769;28;19920;-85
2022/10/24 13:06:58;;;;;;;;;;;18.00;71.40;;;;;;4963556;28;19909;-85
2022/10/24 13:09:42;;;;;;;;;;;17.90;71.30;;;;;;4945440;28;19914;-85
2022/10/24 13:12:22;;;;;;;;;;;17.80;71.20;;;;;;4953358;28;19921;-84
2022/10/24 13:15:06;;;;;;;;;;;17.80;71.30;;;;;;4929933;28;20086;-86
2022/10/24 13:17:35;;;;;;;;;;;17.80;72.30;;;;;;4978249;28;20326;-86
2022/10/24 13:20:08;;;;;;;;;;;17.80;72.50;;;;;;5003991;28;20144;-84
2022/10/24 13:22:40;;;;;;;;;;;17.80;71.60;;;;;;5008099;28;19936;-84
2022/10/24 13:25:32;;;;;;;;;;;17.80;72.30;;;;;;4972874;28;19914;-84
2022/10/24 13:28:33;;;;;;;;;;;17.90;71.80;;;;;;4974473;28;19910;-84
2022/10/24 13:30:58;;;;;;;;;;;18.00;71.50;;;;;;4970316;28;19924;-84
2022/10/24 13:33:53;;;;;;;;;;;18.00;70.80;;;;;;4965132;28;20258;-84
2022/10/24 13:36:44;;;;;;;;;;;18.00;69.90;;;;;;4975837;28;19910;-84
2022/10/24 13:39:44;;;;;;;;;;;18.00;68.60;;;;;;4972786;28;19913;-85
2022/10/24 13:42:29;;;;;;;;;;;18.10;68.30;;;;;;4979865;28;19966;-85
2022/10/24 13:45:18;;;;;;;;;;;18.30;67.90;;;;;;4976720;28;19979;-85
2022/10/24 13:48:25;;;;;;;;;;;;;;;;;;;;;
2022/10/24 13:51:15;;;;;;;;;;;18.50;68.00;;;;;;4949621;28;19909;-85
2022/10/24 13:56:12;;;;;;;;;;;18.60;67.40;;;;;;4935484;22;20433;-80
2022/10/24 13:58:40;;;;;;;;;;;18.50;67.10;;;;;;5012737;28;20008;-83
2022/10/24 14:01:26;;;;;;;;;;;18.50;67.90;;;;;;5015799;28;19952;-83
2022/10/24 14:03:53;;;;;;;;;;;18.50;67.60;;;;;;5018180;28;20523;-82
2022/10/24 14:06:26;;;;;;;;;;;18.50;68.00;;;;;;5010751;28;19909;-82
2022/10/24 14:08:52;;;;;;;;;;;18.50;67.10;;;;;;5022315;28;20101;-83
2022/10/24 14:11:20;;;;;;;;;;;18.50;66.90;;;;;;5018951;28;19916;-82
2022/10/24 14:13:49;;;;;;;;;;;18.50;67.30;;;;;;5017537;28;19909;-82
2022/10/24 14:16:24;;;;;;;;;;;18.50;67.60;;;;;;5017160;28;19910;-83
2022/10/24 14:19:08;;;;;;;;;;;18.50;67.50;;;;;;5018391;28;19910;-82
2022/10/24 14:21:38;;;;;;;;;;;18.50;67.40;;;;;;5017482;28;19925;-82
2022/10/24 14:24:07;;;;;;;;;;;18.50;67.10;;;;;;5017789;28;19920;-83
2022/10/24 14:26:33;;;;;;;;;;;18.50;66.60;;;;;;5018079;28;19913;-83
2022/10/24 14:28:59;;;;;;;;;;;18.50;66.70;;;;;;5016354;28;19971;-83
2022/10/24 14:31:25;;;;;;;;;;;18.50;67.00;;;;;;5014354;28;19920;-82
2022/10/24 14:33:53;;;;;;;;;;;18.50;66.00;;;;;;5017906;28;19918;-83
2022/10/24 14:36:20;;;;;;;;;;;18.50;66.10;;;;;;5016591;28;19909;-82